< < Back
Terminal Aerodrome Forecast


Current Version              Previous Versions:   1  2  3  4  5  6  7  8  9  

Terminal Aerodrome Forecast

308
FTUS42 KFFC 290534
TAFCSG
TAF
KCSG 290534Z 2906/3006 00000KT P6SM BKN100
     FM291300 07006KT P6SM FEW100
     FM291500 11007KT P6SM FEW100
     FM291900 15006KT P6SM FEW100
     FM292100 17005KT P6SM BKN050
     FM300300 16005KT P6SM SCT035 BKN050
     FM300500 17005KT P6SM BKN035=



Latest METAR

800
SAUS70 KWBC 300000 RRA
MTRCSG
METAR KCSG 292351Z 22006KT 10SM OVC050 16/00 A3025 RMK AO2 SLP242
T01610000 10178 20139 56012


USA.gov is the U.S. government's official web portal to all federal, state and local government web resources and services.